Aérodrome :
LOGIN :

S'inscrire | Disclaimer

   EN    FR    IT 

 










Légende :    VFR   VFR Marginal   IFR   IFR Intensif   IFR Très Intensif
Visi : 
Plafond : 
>= 8 km
>= 3000ft
5 à 8 km
1000 à 3000 ft
1500m à 5 km
500 à 1000 ft
800 à 1500m
200 à 500 ft
< 800m
< 200 ft
Symboles :   Orages  Brouillard  Fortes neiges  Fortes précipitations  Vent > 20 kt
SIGMETs :   Divers  Orages  Givrage  Turbulence  Onde Orograph.  Cendres Volcan.






- Altitude de l'aérodrome : 616 ft
- Code IATA : PUF


LFBP - Pau

DERNIER METAR :
  • 130930Z AUTO 11005KT 070V140 9999 FEW031/// SCT230/// 18/11 Q1015 NOSIG

METARs EXPIRÉS :
  • 130900Z AUTO 10006KT 050V140 9999 FEW030/// SCT220/// 19/11 Q1015 NOSIG
  • 130830Z AUTO 11004KT 040V140 9999 BKN100/// BKN210/// BKN230/// 18/12 Q1016 NOSIG
  • 130800Z AUTO 11006KT 080V140 9999 NCD 18/12 Q1016 NOSIG
  • 130730Z AUTO 10006KT 060V140 9999 NCD 17/11 Q1016 NOSIG
  • 130700Z AUTO 10004KT 060V130 9999 NCD 16/12 Q1016 NOSIG
  • 130630Z AUTO VRB02KT 9999 NCD 15/13 Q1017 NOSIG
  • 130600Z AUTO VRB02KT 9999 SCT045/// SCT190/// 14/13 Q1017 NOSIG
  • 130530Z AUTO VRB02KT 9999 BKN046/// BKN190/// 13/12 Q1017 NOSIG
  • 130500Z AUTO 00000KT 9999 BKN047/// BKN190/// 12/11 Q1017 NOSIG

TAF TAF LFBP
Valide du 13 à 06h jusqu'au 14 à 06h UTC


130500Z 1306/1406 VRB03KT CAVOK
TEMPO 1308/1316 08010KT



MET'MAP, la Météo Aéronautique d'un coup d'oeil ! - Copyright ORBIFLY Décembre 2007 - Disclaimer

ORBIFLY MET'MAP TEAM :

Programmation & Développement : Alexandra Zaïnal
Sur une idée originale de : Baudouin d'Aumeries
Soutien technique & logistique : Manuel Goepfert
Assistance : Marc-Olivier Méhu




SOURCES & CREDITS :

   NOAA